Time;durP1;ratioP1;P1;durP2;ratioP2;P2;SDS_P1;SDS_P2;PMS_P1;PMS_P2;Temp;Humidity;BMP_temperature;BMP_pressure;BME280_temperature;BME280_humidity;BME280_pressure;Samples;Min_cycle;Max_cycle;Signal;HPM_P1;HPM_P2
2021/09/15 00:01:46;;;;;;;;;;;;;;;;;;5012859;28;20010;-67
2021/09/15 00:04:13;;;;;;;;;;;;;;;;;;5012180;28;20509;-67
2021/09/15 00:06:40;;;;;;;;;;;;;;;;;;5012654;28;20021;-67
2021/09/15 00:09:07;;;;;;;;;;;;;;;;;;5013109;28;20010;-67
2021/09/15 00:11:34;;;;;;;;;;;;;;;;;;5012590;28;20014;-68
2021/09/15 00:14:02;;;;;;;;;;;;;;;;;;5012594;28;20038;-67
2021/09/15 00:16:29;;;;;;;;;;;;;;;;;;5013005;28;20490;-67
2021/09/15 00:18:56;;;;;;;;;;;;;;;;;;5013385;28;20016;-67
2021/09/15 00:21:23;;;;;;;;;;;;;;;;;;5013395;28;20017;-67
2021/09/15 00:23:50;;;;;;;;;;;;;;;;;;5013540;28;20513;-67
2021/09/15 00:26:17;;;;;;;;;;;;;;;;;;5013283;28;20011;-67
2021/09/15 00:28:44;;;;;;;;;;;;;;;;;;5012629;28;20190;-67
2021/09/15 00:31:11;;;;;;;;;;;;;;;;;;5012388;28;20469;-67
2021/09/15 00:33:38;;;;;;;;;;;;;;;;;;5012322;28;20030;-67
2021/09/15 00:36:05;;;;;;;;;;;;;;;;;;5012117;28;20505;-67
2021/09/15 00:38:32;;;;;;;;;;;;;;;;;;5012502;28;20010;-67
2021/09/15 00:40:58;;;;;;;;;;;;;;;;;;5012131;28;20037;-66
2021/09/15 00:43:25;;;;;;;;;;;;;;;;;;5012041;28;20034;-67
2021/09/15 00:45:52;;;;;;;;;;;;;;;;;;5012393;28;20010;-67
2021/09/15 00:48:19;;;;;;;;;;;;;;;;;;5012276;28;20113;-67
2021/09/15 00:50:46;;;;;;;;;;;;;;;;;;5012359;28;20017;-67
2021/09/15 00:53:13;;;;;;;;;;;;;;;;;;5012278;28;20497;-67
2021/09/15 00:55:40;;;;;;;;;;;;;;;;;;5012315;28;20014;-66
2021/09/15 00:58:07;;;;;;;;;;;;;;;;;;5012060;28;20010;-66
2021/09/15 01:00:34;;;;;;;;;;;;;;;;;;5011770;28;20014;-67
2021/09/15 01:03:01;;;;;;;;;;;;;;;;;;5011634;28;20010;-66
2021/09/15 01:05:28;;;;;;;;;;;;;;;;;;5011993;28;20090;-67
2021/09/15 01:07:54;;;;;;;;;;;;;;;;;;5012169;28;20032;-67
2021/09/15 01:10:21;;;;;;;;;;;;;;;;;;5011806;28;20097;-67
2021/09/15 01:12:48;;;;;;;;;;;;;;;;;;5012201;28;20026;-67
2021/09/15 01:15:15;;;;;;;;;;;;;;;;;;5011164;28;20053;-66
2021/09/15 01:17:42;;;;;;;;;;;;;;;;;;5014266;28;20011;-68
2021/09/15 01:20:09;;;;;;;;;;;;;;;;;;5015409;28;20021;-67
2021/09/15 01:22:36;;;;;;;;;;;;;;;;;;5015314;28;20377;-67
2021/09/15 01:25:03;;;;;;;;;;;;;;;;;;5015545;28;20026;-67
2021/09/15 01:27:30;;;;;;;;;;;;;;;;;;5015100;28;20017;-66
2021/09/15 01:29:57;;;;;;;;;;;;;;;;;;5015042;28;20486;-67
2021/09/15 01:32:24;;;;;;;;;;;;;;;;;;5015226;28;20026;-67
2021/09/15 01:34:52;;;;;;;;;;;;;;;;;;5015015;28;20033;-66
2021/09/15 01:37:19;;;;;;;;;;;;;;;;;;5014887;28;20584;-67
2021/09/15 01:39:45;;;;;;;;;;;;;;;;;;5015185;28;20010;-66
2021/09/15 01:42:12;;;;;;;;;;;;;;;;;;5014912;28;20010;-67
2021/09/15 01:44:39;;;;;;;;;;;;;;;;;;5014794;28;20041;-67
2021/09/15 01:47:06;;;;;;;;;;;;;;;;;;5014939;28;20010;-67
2021/09/15 01:49:33;;;;;;;;;;;;;;;;;;5015182;28;20014;-67
2021/09/15 01:52:00;;;;;;;;;;;;;;;;;;5014757;28;20022;-67
2021/09/15 01:54:27;;;;;;;;;;;;;;;;;;5014401;28;20026;-67
2021/09/15 01:56:54;;;;;;;;;;;;;;;;;;5014679;28;20386;-67
2021/09/15 01:59:21;;;;;;;;;;;;;;;;;;5015012;28;20016;-66
2021/09/15 02:01:48;;;;;;;;;;;;;;;;;;5014975;28;20018;-67
2021/09/15 02:04:15;;;;;;;;;;;;;;;;;;5013934;28;20524;-67
2021/09/15 02:06:41;;;;;;;;;;;;;;;;;;5014473;28;20010;-67
2021/09/15 02:09:08;;;;;;;;;;;;;;;;;;5014782;28;20033;-66
2021/09/15 02:11:35;;;;;;;;;;;;;;;;;;5014318;28;20010;-67
2021/09/15 02:14:02;;;;;;;;;;;;;;;;;;5014543;28;20034;-67
2021/09/15 02:16:29;;;;;;;;;;;;;;;;;;5014582;28;20033;-66
2021/09/15 02:18:56;;;;;;;;;;;;;;;;;;5014215;28;20017;-66
2021/09/15 02:21:23;;;;;;;;;;;;;;;;;;5014506;28;20010;-67
2021/09/15 02:23:50;;;;;;;;;;;;;;;;;;5014387;28;20030;-66
2021/09/15 02:26:17;;;;;;;;;;;;;;;;;;5014057;28;20021;-67
2021/09/15 02:28:44;;;;;;;;;;;;;;;;;;5014116;28;20010;-66
2021/09/15 02:31:11;;;;;;;;;;;;;;;;;;5014366;28;20009;-66
2021/09/15 02:33:37;;;;;;;;;;;;;;;;;;5013884;28;20034;-67
2021/09/15 02:36:04;;;;;;;;;;;;;;;;;;5013630;28;20058;-66
2021/09/15 02:38:31;;;;;;;;;;;;;;;;;;5013793;28;20010;-67
2021/09/15 02:40:58;;;;;;;;;;;;;;;;;;5014342;28;20033;-67
2021/09/15 02:43:25;;;;;;;;;;;;;;;;;;5013813;28;20026;-66
2021/09/15 02:45:53;;;;;;;;;;;;;;;;;;5014123;28;20010;-66
2021/09/15 02:48:20;;;;;;;;;;;;;;;;;;5013811;28;20014;-67
2021/09/15 02:50:47;;;;;;;;;;;;;;;;;;5013628;28;20089;-67
2021/09/15 02:53:14;;;;;;;;;;;;;;;;;;5013851;28;20045;-67
2021/09/15 02:55:40;;;;;;;;;;;;;;;;;;5013887;28;20021;-66
2021/09/15 02:58:07;;;;;;;;;;;;;;;;;;5013647;28;20017;-67
2021/09/15 03:00:34;;;;;;;;;;;;;;;;;;5014116;28;20393;-66
2021/09/15 03:03:01;;;;;;;;;;;;;;;;;;5013544;28;20010;-66
2021/09/15 03:05:28;;;;;;;;;;;;;;;;;;5013429;28;20010;-66
2021/09/15 03:07:55;;;;;;;;;;;;;;;;;;5013572;28;20489;-66
2021/09/15 03:10:22;;;;;;;;;;;;;;;;;;5013584;28;20010;-66
2021/09/15 03:12:49;;;;;;;;;;;;;;;;;;5013596;28;20032;-66
2021/09/15 03:15:16;;;;;;;;;;;;;;;;;;5012805;28;20037;-67
2021/09/15 03:17:43;;;;;;;;;;;;;;;;;;5013188;28;20010;-67
2021/09/15 03:20:10;;;;;;;;;;;;;;;;;;5013463;28;20009;-67
2021/09/15 03:22:36;;;;;;;;;;;;;;;;;;5013412;28;20032;-67
2021/09/15 03:25:03;;;;;;;;;;;;;;;;;;5013260;28;20036;-67
2021/09/15 03:27:30;;;;;;;;;;;;;;;;;;5013243;28;20010;-67
2021/09/15 03:29:57;;;;;;;;;;;;;;;;;;5013103;28;20010;-67
2021/09/15 03:32:24;;;;;;;;;;;;;;;;;;5012918;28;20017;-67
2021/09/15 03:34:51;;;;;;;;;;;;;;;;;;5012414;28;20124;-66
2021/09/15 03:37:18;;;;;;;;;;;;;;;;;;5013180;28;20010;-68
2021/09/15 03:39:45;;;;;;;;;;;;;;;;;;5012762;28;20485;-67
2021/09/15 03:42:12;;;;;;;;;;;;;;;;;;5013288;28;20010;-67
2021/09/15 03:44:39;;;;;;;;;;;;;;;;;;5012664;28;20037;-68
2021/09/15 03:47:06;;;;;;;;;;;;;;;;;;5012313;28;20496;-67
2021/09/15 03:49:33;;;;;;;;;;;;;;;;;;5012925;28;20018;-68
2021/09/15 03:51:59;;;;;;;;;;;;;;;;;;5012935;28;20033;-68
2021/09/15 03:54:27;;;;;;;;;;;;;;;;;;5012549;28;20037;-68
2021/09/15 03:56:53;;;;;;;;;;;;;;;;;;5012550;28;20011;-67
2021/09/15 03:59:20;;;;;;;;;;;;;;;;;;5013185;28;20456;-67
2021/09/15 04:01:47;;;;;;;;;;;;;;;;;;5013065;28;20010;-67
2021/09/15 04:04:14;;;;;;;;;;;;;;;;;;5012550;28;20026;-67
2021/09/15 04:06:41;;;;;;;;;;;;;;;;;;5012466;28;20481;-67
2021/09/15 04:09:08;;;;;;;;;;;;;;;;;;5012615;28;20010;-67
2021/09/15 04:11:35;;;;;;;;;;;;;;;;;;5012482;28;20010;-67
2021/09/15 04:14:02;;;;;;;;;;;;;;;;;;5012511;28;20417;-68
2021/09/15 04:16:29;;;;;;;;;;;;;;;;;;5012710;28;20101;-67
2021/09/15 04:18:56;;;;;;;;;;;;;;;;;;5012771;28;20010;-67
2021/09/15 04:21:23;;;;;;;;;;;;;;;;;;5012065;28;20474;-67
2021/09/15 04:24:02;;;;;;;;;;;;;;;;;;5012480;28;20026;-67
2021/09/15 04:31:58;;;;;;;;;;;;;;;;;;5012182;28;19997;-67
2021/09/15 04:34:25;;;;;;;;;;;;;;;;;;5012219;28;20032;-67
2021/09/15 04:36:52;;;;;;;;;;;;;;;;;;5012024;28;20010;-67
2021/09/15 04:39:19;;;;;;;;;;;;;;;;;;5012509;28;20010;-67
2021/09/15 04:41:46;;;;;;;;;;;;;;;;;;5012242;28;20417;-66
2021/09/15 04:44:13;;;;;;;;;;;;;;;;;;5011981;28;20027;-66
2021/09/15 04:46:40;;;;;;;;;;;;;;;;;;5012588;28;20010;-67
2021/09/15 04:49:07;;;;;;;;;;;;;;;;;;5012892;28;20385;-67
2021/09/15 04:51:34;;;;;;;;;;;;;;;;;;5013446;28;20014;-68
2021/09/15 04:54:00;;;;;;;;;;;;;;;;;;5016982;28;20030;-67
2021/09/15 04:56:27;;;;;;;;;;;;;;;;;;5016478;28;20374;-66
2021/09/15 04:58:54;;;;;;;;;;;;;;;;;;5016202;28;20011;-67
2021/09/15 05:01:21;;;;;;;;;;;;;;;;;;5016076;28;20010;-67
2021/09/15 05:03:48;;;;;;;;;;;;;;;;;;5015527;28;20501;-67
2021/09/15 05:06:15;;;;;;;;;;;;;;;;;;5015602;28;20010;-67
2021/09/15 05:08:42;;;;;;;;;;;;;;;;;;5015441;28;20041;-67
2021/09/15 05:11:09;;;;;;;;;;;;;;;;;;5015895;28;20507;-67
2021/09/15 05:13:36;;;;;;;;;;;;;;;;;;5015706;28;20030;-67
2021/09/15 05:16:03;;;;;;;;;;;;;;;;;;5015503;28;20010;-68
2021/09/15 05:18:30;;;;;;;;;;;;;;;;;;5016937;28;20017;-67
2021/09/15 05:20:56;;;;;;;;;;;;;;;;;;5016429;28;20010;-68
2021/09/15 05:23:23;;;;;;;;;;;;;;;;;;5016489;28;20390;-68
2021/09/15 05:25:50;;;;;;;;;;;;;;;;;;5016562;28;20010;-67
2021/09/15 05:28:17;;;;;;;;;;;;;;;;;;5017857;28;20017;-68
2021/09/15 05:30:44;;;;;;;;;;;;;;;;;;5015751;28;20466;-68
2021/09/15 05:33:12;;;;;;;;;;;;;;;;;;5015757;28;20017;-67
2021/09/15 05:35:39;;;;;;;;;;;;;;;;;;5015170;28;20124;-68
2021/09/15 05:38:06;;;;;;;;;;;;;;;;;;5015852;28;20010;-67
2021/09/15 05:40:33;;;;;;;;;;;;;;;;;;5015353;28;20393;-66
2021/09/15 05:43:00;;;;;;;;;;;;;;;;;;5015289;28;20018;-67
2021/09/15 05:45:26;;;;;;;;;;;;;;;;;;5018919;28;20010;-68
2021/09/15 05:47:53;;;;;;;;;;;;;;;;;;5017878;28;20484;-67
2021/09/15 05:50:20;;;;;;;;;;;;;;;;;;5017960;28;20010;-67
2021/09/15 05:52:47;;;;;;;;;;;;;;;;;;5018638;28;20010;-68
2021/09/15 05:55:14;;;;;;;;;;;;;;;;;;5016663;28;20037;-67
2021/09/15 05:57:41;;;;;;;;;;;;;;;;;;5015614;28;20011;-66
2021/09/15 06:00:08;;;;;;;;;;;;;;;;;;5015930;28;20011;-67
2021/09/15 06:02:35;;;;;;;;;;;;;;;;;;5016630;28;20085;-67
2021/09/15 06:05:02;;;;;;;;;;;;;;;;;;5016766;28;20037;-67
2021/09/15 06:07:29;;;;;;;;;;;;;;;;;;5016653;28;20010;-67
2021/09/15 06:09:56;;;;;;;;;;;;;;;;;;5017284;28;20010;-67
2021/09/15 06:12:22;;;;;;;;;;;;;;;;;;5018054;28;20021;-68
2021/09/15 06:14:49;;;;;;;;;;;;;;;;;;5015311;28;20030;-68
2021/09/15 06:17:16;;;;;;;;;;;;;;;;;;5017934;28;20470;-68
2021/09/15 06:19:43;;;;;;;;;;;;;;;;;;5019075;28;20016;-67
2021/09/15 06:22:10;;;;;;;;;;;;;;;;;;5018979;28;20010;-67
2021/09/15 06:24:37;;;;;;;;;;;;;;;;;;5019072;28;20026;-67
2021/09/15 06:27:04;;;;;;;;;;;;;;;;;;5018560;28;20014;-68
2021/09/15 06:29:31;;;;;;;;;;;;;;;;;;5020051;28;20011;-67
2021/09/15 06:31:58;;;;;;;;;;;;;;;;;;5014189;28;20382;-68
2021/09/15 06:34:25;;;;;;;;;;;;;;;;;;5014151;28;20026;-67
2021/09/15 06:36:53;;;;;;;;;;;;;;;;;;5013842;28;20017;-67
2021/09/15 06:39:20;;;;;;;;;;;;;;;;;;5014191;28;20016;-68
2021/09/15 06:41:47;;;;;;;;;;;;;;;;;;5014306;28;20010;-66
2021/09/15 06:44:14;;;;;;;;;;;;;;;;;;5013803;28;20493;-68
2021/09/15 06:46:41;;;;;;;;;;;;;;;;;;5014141;28;20020;-67
2021/09/15 06:49:08;;;;;;;;;;;;;;;;;;5014516;28;20010;-67
2021/09/15 06:51:35;;;;;;;;;;;;;;;;;;5013848;28;20378;-67
2021/09/15 06:54:02;;;;;;;;;;;;;;;;;;5013793;28;20035;-67
2021/09/15 06:56:29;;;;;;;;;;;;;;;;;;5013780;28;20010;-67
2021/09/15 06:58:55;;;;;;;;;;;;;;;;;;5013702;28;20473;-67
2021/09/15 07:01:24;;;;;;;;;;;;;;;;;;5014111;28;20016;-68
2021/09/15 07:03:51;;;;;;;;;;;;;;;;;;5013813;28;20054;-68
2021/09/15 07:06:18;;;;;;;;;;;;;;;;;;5013597;28;20377;-67
2021/09/15 07:08:45;;;;;;;;;;;;;;;;;;5013183;28;20010;-68
2021/09/15 07:11:12;;;;;;;;;;;;;;;;;;5013437;28;20011;-67
2021/09/15 07:13:38;;;;;;;;;;;;;;;;;;5013082;28;20414;-66
2021/09/15 07:16:05;;;;;;;;;;;;;;;;;;5013050;28;20017;-67
2021/09/15 07:18:32;;;;;;;;;;;;;;;;;;5013489;28;20024;-67
2021/09/15 07:20:59;;;;;;;;;;;;;;;;;;5012896;28;20478;-66
2021/09/15 07:23:26;;;;;;;;;;;;;;;;;;5013404;28;20033;-67
2021/09/15 07:25:53;;;;;;;;;;;;;;;;;;5012873;28;20030;-68
2021/09/15 07:28:20;;;;;;;;;;;;;;;;;;5012973;28;20408;-67
2021/09/15 07:30:47;;;;;;;;;;;;;;;;;;5013285;28;20018;-67
2021/09/15 07:33:14;;;;;;;;;;;;;;;;;;5012766;28;20010;-67
2021/09/15 07:35:41;;;;;;;;;;;;;;;;;;5012726;28;20017;-68
2021/09/15 07:38:08;;;;;;;;;;;;;;;;;;5013009;28;20376;-67
2021/09/15 07:40:35;;;;;;;;;;;;;;;;;;5012846;28;20014;-67
2021/09/15 07:43:02;;;;;;;;;;;;;;;;;;5013533;28;20121;-67
2021/09/15 07:45:29;;;;;;;;;;;;;;;;;;5012538;28;20489;-67
2021/09/15 07:47:56;;;;;;;;;;;;;;;;;;5012443;28;20101;-67
2021/09/15 07:50:23;;;;;;;;;;;;;;;;;;5013045;28;20017;-67
2021/09/15 07:52:50;;;;;;;;;;;;;;;;;;5013741;28;20010;-68
2021/09/15 07:55:16;;;;;;;;;;;;;;;;;;5015350;28;20026;-68
2021/09/15 07:57:43;;;;;;;;;;;;;;;;;;5015407;28;20022;-67
2021/09/15 08:00:10;;;;;;;;;;;;;;;;;;5012829;28;20018;-67
2021/09/15 08:02:37;;;;;;;;;;;;;;;;;;5012735;28;20037;-66
2021/09/15 08:05:04;;;;;;;;;;;;;;;;;;5012157;28;20497;-67
2021/09/15 08:07:31;;;;;;;;;;;;;;;;;;5012610;28;20010;-67
2021/09/15 08:09:58;;;;;;;;;;;;;;;;;;5012451;28;20022;-68
2021/09/15 08:12:25;;;;;;;;;;;;;;;;;;5012146;28;20347;-67
2021/09/15 08:14:52;;;;;;;;;;;;;;;;;;5040356;23;20025;-68
2021/09/15 08:17:19;;;;;;;;;;;;;;;;;;5029469;28;20002;-67
2021/09/15 08:19:46;;;;;;;;;;;;;;;;;;5032064;28;20013;-67
2021/09/15 08:22:13;;;;;;;;;;;;;;;;;;5032099;28;20009;-68
2021/09/15 08:24:39;;;;;;;;;;;;;;;;;;5031592;28;20040;-67
2021/09/15 08:27:06;;;;;;;;;;;;;;;;;;5035024;28;20357;-67
2021/09/15 08:29:33;;;;;;;;;;;;;;;;;;5036254;28;20010;-68
2021/09/15 08:32:00;;;;;;;;;;;;;;;;;;5036131;28;20065;-66
2021/09/15 08:34:27;;;;;;;;;;;;;;;;;;5036007;28;20010;-66
2021/09/15 08:36:54;;;;;;;;;;;;;;;;;;5035917;28;20076;-66
2021/09/15 08:39:22;;;;;;;;;;;;;;;;;;5035616;28;20010;-66
2021/09/15 08:41:51;;;;;;;;;;;;;;;;;;5035702;28;20060;-67
2021/09/15 08:44:18;;;;;;;;;;;;;;;;;;5035510;28;20081;-66
2021/09/15 08:46:45;;;;;;;;;;;;;;;;;;5035954;28;20010;-66
2021/09/15 08:49:12;;;;;;;;;;;;;;;;;;5035990;28;20016;-66
2021/09/15 08:51:39;;;;;;;;;;;;;;;;;;5035353;28;20020;-65
2021/09/15 08:54:07;;;;;;;;;;;;;;;;;;5035697;28;20010;-66
2021/09/15 08:56:33;;;;;;;;;;;;;;;;;;5035364;28;20032;-66
2021/09/15 08:59:00;;;;;;;;;;;;;;;;;;5035763;28;20021;-67
2021/09/15 09:01:28;;;;;;;;;;;;;;;;;;5035251;28;20009;-67
2021/09/15 09:03:55;;;;;;;;;;;;;;;;;;5035270;28;20064;-67
2021/09/15 09:06:22;;;;;;;;;;;;;;;;;;5035275;28;20034;-67
2021/09/15 09:08:52;;;;;;;;;;;;;;;;;;5035402;28;20010;-67
2021/09/15 09:11:19;;;;;;;;;;;;;;;;;;5035632;28;20010;-66
2021/09/15 09:13:46;;;;;;;;;;;;;;;;;;5035602;28;20017;-67
2021/09/15 09:16:13;;;;;;;;;;;;;;;;;;5035311;28;20661;-68
2021/09/15 09:18:40;;;;;;;;;;;;;;;;;;5035002;28;20014;-67
2021/09/15 09:21:07;;;;;;;;;;;;;;;;;;5035130;28;20010;-67
2021/09/15 09:23:34;;;;;;;;;;;;;;;;;;5035232;28;20010;-68
2021/09/15 09:26:01;;;;;;;;;;;;;;;;;;5034593;28;20030;-68
2021/09/15 09:28:28;;;;;;;;;;;;;;;;;;5035296;28;20010;-67
2021/09/15 09:30:55;;;;;;;;;;;;;;;;;;5034627;28;20017;-67
2021/09/15 09:33:22;;;;;;;;;;;;;;;;;;5035192;28;20097;-67
2021/09/15 09:35:49;;;;;;;;;;;;;;;;;;5034803;28;20033;-68
2021/09/15 09:38:16;;;;;;;;;;;;;;;;;;5034010;28;20377;-66
2021/09/15 09:40:43;;;;;;;;;;;;;;;;;;5034798;28;20009;-68
2021/09/15 09:43:10;;;;;;;;;;;;;;;;;;5034783;28;20477;-68
2021/09/15 09:45:37;;;;;;;;;;;;;;;;;;5034099;28;20052;-68
2021/09/15 09:48:04;;;;;;;;;;;;;;;;;;5034870;28;20010;-68
2021/09/15 09:50:31;;;;;;;;;;;;;;;;;;5034563;28;20013;-68
2021/09/15 09:52:58;;;;;;;;;;;;;;;;;;5034573;28;20010;-68
2021/09/15 09:55:25;;;;;;;;;;;;;;;;;;5034355;28;20026;-68
2021/09/15 09:57:52;;;;;;;;;;;;;;;;;;5034491;28;20033;-67
2021/09/15 10:00:19;;;;;;;;;;;;;;;;;;5034409;28;20010;-68
2021/09/15 10:02:46;;;;;;;;;;;;;;;;;;5034323;28;20495;-68
2021/09/15 10:05:13;;;;;;;;;;;;;;;;;;5034067;28;20030;-68
2021/09/15 10:07:40;;;;;;;;;;;;;;;;;;5034039;28;20022;-68
2021/09/15 10:10:07;;;;;;;;;;;;;;;;;;5034312;28;20009;-68
2021/09/15 10:12:34;;;;;;;;;;;;;;;;;;5034178;28;20481;-68
2021/09/15 10:15:01;;;;;;;;;;;;;;;;;;5034083;28;20095;-68
2021/09/15 10:17:28;;;;;;;;;;;;;;;;;;5034156;28;20035;-68
2021/09/15 10:19:55;;;;;;;;;;;;;;;;;;5033986;28;20017;-67
2021/09/15 10:22:22;;;;;;;;;;;;;;;;;;5034314;28;20016;-68
2021/09/15 10:24:48;;;;;;;;;;;;;;;;;;5034031;28;20026;-67
2021/09/15 10:27:15;;;;;;;;;;;;;;;;;;5035207;28;20461;-68
2021/09/15 10:29:42;;;;;;;;;;;;;;;;;;5036187;28;20017;-69
2021/09/15 10:32:09;;;;;;;;;;;;;;;;;;5036118;28;20010;-68
2021/09/15 10:34:36;;;;;;;;;;;;;;;;;;5035960;28;20084;-68
2021/09/15 10:37:04;;;;;;;;;;;;;;;;;;5035041;28;20010;-68
2021/09/15 10:39:31;;;;;;;;;;;;;;;;;;5033850;28;20014;-68
2021/09/15 10:41:58;;;;;;;;;;;;;;;;;;5033828;28;20010;-68
2021/09/15 10:44:25;;;;;;;;;;;;;;;;;;5033382;28;20017;-68
2021/09/15 10:46:52;;;;;;;;;;;;;;;;;;5033656;28;20016;-68
2021/09/15 10:49:19;;;;;;;;;;;;;;;;;;5033498;28;20010;-69
2021/09/15 10:51:46;;;;;;;;;;;;;;;;;;5033466;28;20010;-68
2021/09/15 10:54:13;;;;;;;;;;;;;;;;;;5033291;28;20010;-68
2021/09/15 10:56:39;;;;;;;;;;;;;;;;;;5033086;28;20109;-67
2021/09/15 10:59:06;;;;;;;;;;;;;;;;;;5033419;28;20009;-69
2021/09/15 11:01:33;;;;;;;;;;;;;;;;;;5033344;28;20010;-69
2021/09/15 11:04:00;;;;;;;;;;;;;;;;;;5033197;28;20036;-67
2021/09/15 11:06:27;;;;;;;;;;;;;;;;;;5032885;28;20030;-67
2021/09/15 11:08:54;;;;;;;;;;;;;;;;;;5033149;28;20022;-67
2021/09/15 11:11:21;;;;;;;;;;;;;;;;;;5033382;28;20014;-66
2021/09/15 11:13:48;;;;;;;;;;;;;;;;;;5033033;28;20018;-68
2021/09/15 11:16:15;;;;;;;;;;;;;;;;;;5032880;28;20036;-67
2021/09/15 11:18:42;;;;;;;;;;;;;;;;;;5033075;28;20016;-67
2021/09/15 11:21:11;;;;;;;;;;;;;;;;;;5032833;28;20469;-67
2021/09/15 11:23:38;;;;;;;;;;;;;;;;;;5032979;28;20039;-67
2021/09/15 11:26:05;;;;;;;;;;;;;;;;;;5032447;28;20026;-67
2021/09/15 11:28:32;;;;;;;;;;;;;;;;;;5033011;28;20021;-67
2021/09/15 11:30:59;;;;;;;;;;;;;;;;;;5032707;28;20485;-66
2021/09/15 11:33:26;;;;;;;;;;;;;;;;;;5032850;28;20010;-67
2021/09/15 11:35:53;;;;;;;;;;;;;;;;;;5032492;28;20026;-67
2021/09/15 11:38:20;;;;;;;;;;;;;;;;;;5032309;28;20385;-66
2021/09/15 11:40:47;;;;;;;;;;;;;;;;;;5032820;28;20010;-67
2021/09/15 11:43:14;;;;;;;;;;;;;;;;;;5032848;28;20017;-67
2021/09/15 11:45:42;;;;;;;;;;;;;;;;;;5032353;28;20112;-67
2021/09/15 11:48:10;;;;;;;;;;;;;;;;;;5032726;28;20014;-68
2021/09/15 11:50:37;;;;;;;;;;;;;;;;;;5032329;28;20016;-67
2021/09/15 11:53:06;;;;;;;;;;;;;;;;;;5032350;28;20461;-67
2021/09/15 11:55:36;;;;;;;;;;;;;;;;;;5032338;28;20037;-67
2021/09/15 11:58:03;;;;;;;;;;;;;;;;;;5032393;28;20524;-67
2021/09/15 12:00:30;;;;;;;;;;;;;;;;;;5031826;28;20100;-67
2021/09/15 12:02:57;;;;;;;;;;;;;;;;;;5032442;28;20017;-67
2021/09/15 12:05:23;;;;;;;;;;;;;;;;;;5032044;28;20030;-67
2021/09/15 12:07:50;;;;;;;;;;;;;;;;;;5031918;28;20013;-67
2021/09/15 12:10:17;;;;;;;;;;;;;;;;;;5032421;28;20009;-68
2021/09/15 12:12:46;;;;;;;;;;;;;;;;;;5031723;28;20412;-67
2021/09/15 12:15:13;;;;;;;;;;;;;;;;;;5031825;28;20068;-67
2021/09/15 12:17:40;;;;;;;;;;;;;;;;;;5031939;28;20009;-67
2021/09/15 12:20:07;;;;;;;;;;;;;;;;;;5032243;28;20010;-67
2021/09/15 12:22:34;;;;;;;;;;;;;;;;;;5032182;28;20009;-68
2021/09/15 12:25:01;;;;;;;;;;;;;;;;;;5031979;28;20361;-67
2021/09/15 12:27:28;;;;;;;;;;;;;;;;;;5032205;28;20010;-68
2021/09/15 12:29:55;;;;;;;;;;;;;;;;;;5031951;28;20057;-67
2021/09/15 12:32:21;;;;;;;;;;;;;;;;;;5031682;28;20014;-67
2021/09/15 12:34:48;;;;;;;;;;;;;;;;;;5031505;28;20408;-67
2021/09/15 12:37:15;;;;;;;;;;;;;;;;;;5032072;28;20017;-68
2021/09/15 12:39:42;;;;;;;;;;;;;;;;;;5032053;28;20013;-68
2021/09/15 12:42:09;;;;;;;;;;;;;;;;;;5032036;28;20369;-67
2021/09/15 12:44:36;;;;;;;;;;;;;;;;;;5031771;28;20009;-68
2021/09/15 12:47:03;;;;;;;;;;;;;;;;;;5031988;28;20037;-67
2021/09/15 12:49:30;;;;;;;;;;;;;;;;;;5032159;28;20032;-69
2021/09/15 12:51:57;;;;;;;;;;;;;;;;;;5031977;28;20461;-67
2021/09/15 12:54:24;;;;;;;;;;;;;;;;;;5031603;28;20017;-67
2021/09/15 12:56:51;;;;;;;;;;;;;;;;;;5031755;28;20014;-68
2021/09/15 12:59:18;;;;;;;;;;;;;;;;;;5031982;28;20009;-67
2021/09/15 13:01:44;;;;;;;;;;;;;;;;;;5031767;28;20017;-68
2021/09/15 13:04:11;;;;;;;;;;;;;;;;;;5031629;28;20017;-67
2021/09/15 13:06:38;;;;;;;;;;;;;;;;;;5031807;28;20436;-69
2021/09/15 13:09:05;;;;;;;;;;;;;;;;;;5031898;28;20017;-67
2021/09/15 13:11:32;;;;;;;;;;;;;;;;;;5031689;28;20013;-67
2021/09/15 13:13:59;;;;;;;;;;;;;;;;;;5034020;28;20381;-68
2021/09/15 13:16:26;;;;;;;;;;;;;;;;;;5034897;28;20037;-69
2021/09/15 13:18:53;;;;;;;;;;;;;;;;;;5035450;28;20016;-68
2021/09/15 13:21:20;;;;;;;;;;;;;;;;;;5035442;28;20380;-67
2021/09/15 13:23:47;;;;;;;;;;;;;;;;;;5035175;28;20049;-68
2021/09/15 13:26:14;;;;;;;;;;;;;;;;;;5034714;28;20026;-67
2021/09/15 13:28:41;;;;;;;;;;;;;;;;;;5034633;28;20010;-68
2021/09/15 13:31:08;;;;;;;;;;;;;;;;;;5035253;28;20475;-68
2021/09/15 13:33:35;;;;;;;;;;;;;;;;;;5035126;28;20017;-68
2021/09/15 13:36:02;;;;;;;;;;;;;;;;;;5034975;28;20168;-68
2021/09/15 13:38:29;;;;;;;;;;;;;;;;;;5035129;28;20032;-67
2021/09/15 13:40:55;;;;;;;;;;;;;;;;;;5034752;28;20010;-68
2021/09/15 13:43:22;;;;;;;;;;;;;;;;;;5034643;28;20018;-67
2021/09/15 13:45:49;;;;;;;;;;;;;;;;;;5034668;28;20120;-69
2021/09/15 13:48:16;;;;;;;;;;;;;;;;;;5034625;28;20399;-67
2021/09/15 13:50:43;;;;;;;;;;;;;;;;;;5034920;28;20539;-68
2021/09/15 13:53:10;;;;;;;;;;;;;;;;;;5034793;28;20010;-68
2021/09/15 13:55:37;;;;;;;;;;;;;;;;;;5034495;28;20026;-67
2021/09/15 13:58:04;;;;;;;;;;;;;;;;;;5034086;28;20473;-68
2021/09/15 14:00:31;;;;;;;;;;;;;;;;;;5034710;28;20009;-67
2021/09/15 14:02:58;;;;;;;;;;;;;;;;;;5034901;28;20010;-68
2021/09/15 14:05:25;;;;;;;;;;;;;;;;;;5033872;28;20026;-67
2021/09/15 14:07:52;;;;;;;;;;;;;;;;;;5034596;28;20021;-67
2021/09/15 14:10:19;;;;;;;;;;;;;;;;;;5034322;28;20017;-68
2021/09/15 14:12:46;;;;;;;;;;;;;;;;;;5034362;28;20500;-68
2021/09/15 14:15:13;;;;;;;;;;;;;;;;;;5054459;22;20087;-73
2021/09/15 14:17:40;;;;;;;;;;;;;;;;;;5011924;28;20014;-73
2021/09/15 14:20:07;;;;;;;;;;;;;;;;;;5014392;28;20373;-72
2021/09/15 14:22:34;;;;;;;;;;;;;;;;;;5013880;28;20054;-73
2021/09/15 14:25:01;;;;;;;;;;;;;;;;;;5013592;28;20100;-73
2021/09/15 14:27:28;;;;;;;;;;;;;;;;;;5013792;28;20023;-72
2021/09/15 14:29:55;;;;;;;;;;;;;;;;;;5014183;28;20037;-73
2021/09/15 14:32:22;;;;;;;;;;;;;;;;;;5014124;28;20010;-73
2021/09/15 14:34:48;;;;;;;;;;;;;;;;;;5013348;28;20381;-73
2021/09/15 14:37:15;;;;;;;;;;;;;;;;;;5013936;28;20010;-72
2021/09/15 14:39:42;;;;;;;;;;;;;;;;;;5014053;28;20018;-73
2021/09/15 14:42:09;;;;;;;;;;;;;;;;;;5013817;28;20040;-72
2021/09/15 14:44:36;;;;;;;;;;;;;;;;;;5013465;28;20633;-72
2021/09/15 14:47:03;;;;;;;;;;;;;;;;;;5013314;28;20033;-72
2021/09/15 14:49:30;;;;;;;;;;;;;;;;;;5013641;28;20017;-73
2021/09/15 14:51:57;;;;;;;;;;;;;;;;;;5013557;28;20018;-72
2021/09/15 14:54:24;;;;;;;;;;;;;;;;;;5013647;28;20017;-73
2021/09/15 14:56:51;;;;;;;;;;;;;;;;;;5013197;28;20026;-73
2021/09/15 14:59:18;;;;;;;;;;;;;;;;;;5013488;28;20017;-73
2021/09/15 15:01:45;;;;;;;;;;;;;;;;;;5013816;28;20033;-73
2021/09/15 15:04:11;;;;;;;;;;;;;;;;;;5014449;28;20462;-71
2021/09/15 15:06:38;;;;;;;;;;;;;;;;;;5013038;28;20038;-73
2021/09/15 15:09:05;;;;;;;;;;;;;;;;;;5013530;28;20010;-72
2021/09/15 15:11:32;;;;;;;;;;;;;;;;;;5013281;28;20014;-73
2021/09/15 15:13:59;;;;;;;;;;;;;;;;;;5013122;28;20009;-73
2021/09/15 15:16:26;;;;;;;;;;;;;;;;;;5012742;28;20037;-73
2021/09/15 15:18:53;;;;;;;;;;;;;;;;;;5013139;28;20010;-73
2021/09/15 15:21:20;;;;;;;;;;;;;;;;;;5012917;28;20010;-72
2021/09/15 15:23:47;;;;;;;;;;;;;;;;;;5013246;28;20018;-73
2021/09/15 15:26:14;;;;;;;;;;;;;;;;;;5012686;28;20026;-73
2021/09/15 15:28:41;;;;;;;;;;;;;;;;;;5013176;28;20017;-72
2021/09/15 15:31:08;;;;;;;;;;;;;;;;;;5013123;28;20011;-73
2021/09/15 15:33:34;;;;;;;;;;;;;;;;;;5013490;28;20011;-73
2021/09/15 15:36:01;;;;;;;;;;;;;;;;;;5012384;28;20034;-73
2021/09/15 15:38:28;;;;;;;;;;;;;;;;;;5013104;28;20354;-73
2021/09/15 15:40:55;;;;;;;;;;;;;;;;;;5013098;28;20010;-73
2021/09/15 15:43:22;;;;;;;;;;;;;;;;;;5013232;28;20017;-73
2021/09/15 15:45:49;;;;;;;;;;;;;;;;;;5012371;28;20497;-72
2021/09/15 15:48:16;;;;;;;;;;;;;;;;;;5012630;28;20057;-73
2021/09/15 15:50:43;;;;;;;;;;;;;;;;;;5012868;28;20016;-72
2021/09/15 15:53:10;;;;;;;;;;;;;;;;;;5013287;28;20010;-72
2021/09/15 15:55:37;;;;;;;;;;;;;;;;;;5012441;28;20505;-72
2021/09/15 15:58:04;;;;;;;;;;;;;;;;;;5012632;28;20017;-72
2021/09/15 16:00:31;;;;;;;;;;;;;;;;;;5012570;28;20011;-72
2021/09/15 16:02:58;;;;;;;;;;;;;;;;;;5012134;28;20469;-72
2021/09/15 16:05:25;;;;;;;;;;;;;;;;;;5012444;28;20030;-72
2021/09/15 16:07:52;;;;;;;;;;;;;;;;;;5012372;28;20026;-72
2021/09/15 16:10:19;;;;;;;;;;;;;;;;;;5012351;28;20496;-72
2021/09/15 16:12:46;;;;;;;;;;;;;;;;;;5012396;28;20009;-73
2021/09/15 16:15:13;;;;;;;;;;;;;;;;;;5011729;28;20030;-72
2021/09/15 16:17:41;;;;;;;;;;;;;;;;;;5012372;28;20017;-72
2021/09/15 16:20:08;;;;;;;;;;;;;;;;;;5012386;28;20009;-72
2021/09/15 16:22:35;;;;;;;;;;;;;;;;;;5012780;28;20010;-72
2021/09/15 16:25:02;;;;;;;;;;;;;;;;;;5011965;28;20018;-72
2021/09/15 16:27:29;;;;;;;;;;;;;;;;;;5012181;28;20022;-72
2021/09/15 16:29:56;;;;;;;;;;;;;;;;;;5012097;28;20010;-72
2021/09/15 16:32:23;;;;;;;;;;;;;;;;;;5011962;28;20469;-72
2021/09/15 16:34:50;;;;;;;;;;;;;;;;;;5012222;28;20017;-72
2021/09/15 16:37:17;;;;;;;;;;;;;;;;;;5012142;28;20018;-72
2021/09/15 16:39:44;;;;;;;;;;;;;;;;;;5012417;28;20378;-71
2021/09/15 16:42:10;;;;;;;;;;;;;;;;;;5011927;28;20017;-72
2021/09/15 16:44:37;;;;;;;;;;;;;;;;;;5011908;28;20010;-72
2021/09/15 16:47:04;;;;;;;;;;;;;;;;;;5013255;28;20432;-73
2021/09/15 16:49:31;;;;;;;;;;;;;;;;;;5015973;28;20010;-72